Terminal Aerodrome Forecast
Issued by NWS Jacksonville, FL

Home | Current Version | Previous Version | Text Only | Print | Product List | Glossary On
Versions: 1 2 3 4 5 6 7 8 9 10 11 12 13 14 15 16 17 18 19
000
FTUS42 KJAX 272347
TAFSSI
TAF
KSSI 272347Z 2800/2824 11008KT P6SM FEW030 BKN250
     FM280300 11006KT P6SM FEW015 BKN250
     FM281500 11008G15KT P6SM FEW025 BKN250=

USA.gov is the U.S. government's official web portal to all federal, state and local government web resources and services.